createdAt,value
2022-12-24T00:01:07.102Z,100.00
2022-12-24T00:03:35.336Z,100.00
2022-12-24T00:06:05.410Z,100.00
2022-12-24T00:08:32.816Z,99.51
2022-12-24T00:11:00.485Z,98.94
2022-12-24T00:13:27.952Z,96.78
2022-12-24T00:15:56.669Z,97.45
2022-12-24T00:18:24.080Z,96.39
2022-12-24T00:20:51.713Z,95.58
2022-12-24T00:23:19.477Z,95.53
2022-12-24T00:25:47.598Z,95.20
2022-12-24T00:28:16.185Z,94.18
2022-12-24T00:30:44.573Z,94.49
2022-12-24T00:33:13.376Z,94.55
2022-12-24T00:35:41.585Z,95.21
2022-12-24T00:38:09.929Z,96.04
2022-12-24T00:40:37.379Z,98.39
2022-12-24T00:43:04.798Z,100.00
2022-12-24T00:45:32.199Z,100.00
2022-12-24T00:47:59.709Z,100.00
2022-12-24T00:50:28.409Z,100.00
2022-12-24T00:52:55.759Z,100.00
2022-12-24T00:55:23.159Z,100.00
2022-12-24T00:57:50.550Z,100.00
2022-12-24T01:00:18.382Z,100.00
2022-12-24T01:02:46.076Z,100.00
2022-12-24T01:05:12.829Z,100.00
2022-12-24T01:07:43.866Z,100.00
2022-12-24T01:10:13.715Z,100.00
2022-12-24T01:12:41.678Z,97.89
2022-12-24T01:15:10.312Z,94.49
2022-12-24T01:17:38.043Z,93.79
2022-12-24T01:20:07.885Z,93.27
2022-12-24T01:22:35.387Z,92.83
2022-12-24T01:25:05.056Z,91.77
2022-12-24T01:27:33.168Z,92.46
2022-12-24T01:30:00.519Z,91.66
2022-12-24T01:32:27.916Z,91.21
2022-12-24T01:34:55.300Z,90.47
2022-12-24T01:37:22.702Z,90.40
2022-12-24T01:39:50.135Z,91.93
2022-12-24T01:42:39.257Z,94.43
2022-12-24T01:45:41.760Z,96.48
2022-12-24T01:48:17.075Z,96.09
2022-12-24T01:50:45.196Z,95.01
2022-12-24T01:53:13.506Z,95.53
2022-12-24T01:55:41.857Z,95.33
2022-12-24T01:58:12.139Z,94.84
2022-12-24T02:00:39.561Z,94.18
2022-12-24T02:03:07.572Z,92.94
2022-12-24T02:05:40.162Z,93.31
2022-12-24T02:08:09.332Z,93.26
2022-12-24T02:10:36.720Z,93.55
2022-12-24T02:13:05.399Z,94.21
2022-12-24T02:15:43.591Z,94.52
2022-12-24T02:18:20.741Z,94.26
2022-12-24T02:21:11.287Z,94.74
2022-12-24T02:24:03.262Z,94.64
2022-12-24T02:26:44.095Z,94.88
2022-12-24T02:29:27.472Z,94.94
2022-12-24T02:32:02.786Z,93.81
2022-12-24T02:34:33.916Z,92.73
2022-12-24T02:37:06.695Z,92.35
2022-12-24T02:39:41.273Z,91.08
2022-12-24T02:42:12.835Z,89.77
2022-12-24T02:44:45.656Z,91.34
2022-12-24T02:47:16.060Z,92.07
2022-12-24T02:49:45.741Z,93.06
2022-12-24T02:52:28.942Z,93.52
2022-12-24T02:54:56.582Z,93.13
2022-12-24T02:57:34.491Z,93.76
2022-12-24T03:00:03.707Z,93.17
2022-12-24T03:02:51.486Z,93.87
2022-12-24T03:05:21.344Z,93.06
2022-12-24T03:07:57.348Z,92.33
2022-12-24T03:10:30.190Z,91.94
2022-12-24T03:13:03.399Z,91.65
2022-12-24T03:15:32.667Z,91.63
2022-12-24T03:18:04.279Z,91.63
2022-12-24T03:20:36.211Z,90.28
2022-12-24T03:23:04.935Z,89.75
2022-12-24T03:25:33.787Z,91.20
2022-12-24T03:28:05.809Z,90.80
2022-12-24T03:30:33.749Z,90.92
2022-12-24T03:33:02.740Z,91.80
2022-12-24T03:35:30.132Z,92.40
2022-12-24T03:37:57.616Z,93.18
2022-12-24T03:40:25.053Z,92.93
2022-12-24T03:42:52.466Z,92.94
2022-12-24T03:45:19.896Z,92.39
2022-12-24T03:47:47.325Z,92.25
2022-12-24T03:50:16.118Z,91.95
2022-12-24T03:52:43.976Z,92.30
2022-12-24T03:55:11.503Z,92.85
2022-12-24T03:57:39.018Z,91.27
2022-12-24T04:00:07.998Z,91.27
2022-12-24T04:02:35.875Z,90.36
2022-12-24T04:05:03.460Z,90.22
2022-12-24T04:07:35.919Z,90.44
2022-12-24T04:10:03.313Z,89.85
2022-12-24T04:12:30.690Z,90.08
2022-12-24T04:14:58.065Z,90.10
2022-12-24T04:17:25.480Z,89.59
2022-12-24T04:19:52.898Z,89.54
2022-12-24T04:22:20.486Z,87.66
2022-12-24T04:24:49.287Z,87.74
2022-12-24T04:27:17.616Z,86.12
2022-12-24T04:29:45.046Z,86.07
2022-12-24T04:32:12.497Z,83.84
2022-12-24T04:34:39.888Z,83.40
2022-12-24T04:37:07.296Z,83.18
2022-12-24T04:39:34.688Z,82.74
2022-12-24T04:42:03.386Z,82.76
2022-12-24T04:44:30.756Z,82.56
2022-12-24T04:46:58.107Z,81.71
2022-12-24T04:49:25.685Z,82.21
2022-12-24T04:51:53.084Z,81.44
2022-12-24T04:54:20.906Z,81.73
2022-12-24T04:56:48.321Z,81.50
2022-12-24T04:59:17.009Z,81.28
2022-12-24T05:01:44.443Z,81.72
2022-12-24T05:04:12.068Z,81.73
2022-12-24T05:06:39.462Z,81.68
2022-12-24T05:09:06.866Z,82.17
2022-12-24T05:11:34.278Z,81.98
2022-12-24T05:14:01.644Z,82.74
2022-12-24T05:16:30.437Z,83.89
2022-12-24T05:18:57.931Z,83.38
2022-12-24T05:21:26.073Z,83.17
2022-12-24T05:24:11.529Z,83.73
2022-12-24T05:26:43.092Z,85.02
2022-12-24T05:29:12.940Z,85.30
2022-12-24T05:31:42.703Z,86.11
2022-12-24T05:34:10.533Z,86.95
2022-12-24T05:36:38.407Z,87.08
2022-12-24T05:39:11.632Z,86.99
2022-12-24T05:41:42.993Z,87.16
2022-12-24T05:44:10.394Z,87.59
2022-12-24T05:46:37.913Z,86.42
2022-12-24T05:49:06.797Z,86.34
2022-12-24T05:51:34.229Z,85.53
2022-12-24T05:54:01.640Z,85.26
2022-12-24T05:56:29.536Z,83.96
2022-12-24T05:58:57.946Z,83.57
2022-12-24T06:01:26.161Z,83.70
2022-12-24T06:03:54.226Z,83.90
2022-12-24T06:06:23.827Z,83.25
2022-12-24T06:08:52.982Z,83.62
2022-12-24T06:11:22.196Z,83.31
2022-12-24T06:13:49.601Z,83.41
2022-12-24T06:16:19.067Z,83.67
2022-12-24T06:18:46.646Z,83.89
2022-12-24T06:21:14.583Z,84.31
2022-12-24T06:23:44.950Z,84.44
2022-12-24T06:26:14.614Z,84.39
2022-12-24T06:28:42.719Z,84.52
2022-12-24T06:31:12.735Z,84.25
2022-12-24T06:33:40.541Z,84.07
2022-12-24T06:36:15.004Z,84.28
2022-12-24T06:38:46.229Z,84.67
2022-12-24T06:41:14.057Z,84.74
2022-12-24T06:43:45.061Z,83.66
2022-12-24T06:46:12.967Z,82.57
2022-12-24T06:48:40.515Z,81.39
2022-12-24T06:51:08.012Z,80.88
2022-12-24T06:53:35.364Z,79.48
2022-12-24T06:56:04.779Z,79.29
2022-12-24T06:58:32.403Z,79.06
2022-12-24T07:01:01.988Z,77.68
2022-12-24T07:03:29.830Z,77.05
2022-12-24T07:05:57.418Z,76.89
2022-12-24T07:08:25.067Z,76.40
2022-12-24T07:10:54.514Z,74.95
2022-12-24T07:13:23.476Z,74.97
2022-12-24T07:15:58.662Z,74.93
2022-12-24T07:18:26.254Z,75.29
2022-12-24T07:20:53.637Z,73.19
2022-12-24T07:23:21.190Z,73.61
2022-12-24T07:25:48.603Z,73.86
2022-12-24T07:28:16.041Z,74.29
2022-12-24T07:30:44.912Z,73.20
2022-12-24T07:33:12.406Z,72.78
2022-12-24T07:35:39.771Z,72.25
2022-12-24T07:38:07.130Z,72.45
2022-12-24T07:40:34.798Z,72.33
2022-12-24T07:43:02.129Z,72.00
2022-12-24T07:45:29.538Z,72.75
2022-12-24T07:47:58.269Z,71.79
2022-12-24T07:50:25.627Z,72.17
2022-12-24T07:52:53.420Z,72.26
2022-12-24T07:55:21.211Z,72.19
2022-12-24T07:57:48.620Z,72.22
2022-12-24T08:00:16.564Z,72.93
2022-12-24T08:02:44.311Z,72.71
2022-12-24T08:05:13.172Z,72.86
2022-12-24T08:07:40.577Z,73.75
2022-12-24T08:10:09.412Z,74.31
2022-12-24T08:12:36.812Z,74.92
2022-12-24T08:15:04.675Z,75.42
2022-12-24T08:17:32.621Z,75.78
2022-12-24T08:20:00.120Z,76.18
2022-12-24T08:22:28.872Z,77.32
2022-12-24T08:24:56.257Z,77.15
2022-12-24T08:27:23.665Z,78.14
2022-12-24T08:29:51.107Z,78.48
2022-12-24T08:32:19.027Z,78.36
2022-12-24T08:34:46.310Z,78.51
2022-12-24T08:37:13.734Z,77.80
2022-12-24T08:39:42.460Z,77.24
2022-12-24T08:42:09.870Z,76.96
2022-12-24T08:44:37.312Z,76.82
2022-12-24T08:47:04.830Z,76.82
2022-12-24T08:49:32.250Z,76.43
2022-12-24T08:51:59.616Z,76.17
2022-12-24T08:54:27.467Z,76.08
2022-12-24T08:56:56.189Z,76.20
2022-12-24T08:59:23.704Z,76.64
2022-12-24T09:01:52.306Z,75.72
2022-12-24T09:04:20.153Z,75.32
2022-12-24T09:06:47.524Z,75.57
2022-12-24T09:09:14.965Z,75.55
2022-12-24T09:11:42.431Z,75.62
2022-12-24T09:14:11.127Z,75.46
2022-12-24T09:16:38.592Z,74.15
2022-12-24T09:19:06.444Z,73.80
2022-12-24T09:21:33.893Z,72.98
2022-12-24T09:24:01.369Z,72.23
2022-12-24T09:26:29.902Z,71.23
2022-12-24T09:28:58.282Z,71.09
2022-12-24T09:31:27.721Z,70.90
2022-12-24T09:33:55.977Z,70.64
2022-12-24T09:36:23.416Z,69.67
2022-12-24T09:38:51.219Z,69.58
2022-12-24T09:41:31.753Z,69.26
2022-12-24T09:44:04.730Z,68.72
2022-12-24T09:46:36.807Z,67.89
2022-12-24T09:49:10.072Z,67.42
2022-12-24T09:51:42.674Z,68.26
2022-12-24T09:54:16.176Z,66.70
2022-12-24T09:56:46.275Z,66.77
2022-12-24T09:59:16.266Z,66.54
2022-12-24T10:01:45.070Z,65.41
2022-12-24T10:04:15.639Z,65.21
2022-12-24T10:06:51.327Z,66.33
2022-12-24T10:09:29.704Z,65.56
2022-12-24T10:12:04.988Z,66.25
2022-12-24T10:14:50.566Z,66.45
2022-12-24T10:17:40.567Z,66.42
2022-12-24T10:20:30.992Z,66.80
2022-12-24T10:23:06.051Z,66.49
2022-12-24T10:25:39.179Z,66.82
2022-12-24T10:28:13.958Z,68.05
2022-12-24T10:30:42.543Z,66.61
2022-12-24T10:33:20.995Z,65.91
2022-12-24T10:35:52.853Z,66.48
2022-12-24T10:38:20.418Z,66.36
2022-12-24T10:40:50.856Z,66.78
2022-12-24T10:43:21.358Z,66.53
2022-12-24T10:45:52.165Z,66.26
2022-12-24T10:48:26.602Z,66.21
2022-12-24T10:51:00.207Z,66.25
2022-12-24T10:53:37.752Z,66.39
2022-12-24T10:56:08.226Z,65.64
2022-12-24T10:58:36.810Z,66.24
2022-12-24T11:01:05.167Z,66.35
2022-12-24T11:03:35.943Z,66.95
2022-12-24T11:06:07.952Z,66.44
2022-12-24T11:08:36.398Z,65.92
2022-12-24T11:11:06.343Z,67.11
2022-12-24T11:13:38.414Z,67.54
2022-12-24T11:16:11.088Z,69.05
2022-12-24T11:18:51.145Z,69.04
2022-12-24T11:21:24.689Z,69.90
2022-12-24T11:23:55.664Z,70.31
2022-12-24T11:26:25.428Z,70.48
2022-12-24T11:29:14.451Z,70.96
2022-12-24T11:31:41.975Z,71.78
2022-12-24T11:34:25.461Z,71.83
2022-12-24T11:36:54.888Z,71.76
2022-12-24T11:39:24.101Z,71.92
2022-12-24T11:41:54.040Z,72.49
2022-12-24T11:44:26.750Z,73.25
2022-12-24T11:46:57.362Z,73.97
2022-12-24T11:49:28.392Z,74.23
2022-12-24T11:52:12.579Z,74.17
2022-12-24T11:54:46.542Z,74.64
2022-12-24T11:57:18.707Z,74.09
2022-12-24T11:59:49.190Z,74.58
2022-12-24T12:02:22.605Z,74.61
2022-12-24T12:04:55.030Z,73.66
2022-12-24T12:07:26.409Z,72.70
2022-12-24T12:09:58.966Z,73.15
2022-12-24T12:12:29.002Z,73.19
2022-12-24T12:15:01.196Z,74.09
2022-12-24T12:17:33.439Z,73.52
2022-12-24T12:20:07.186Z,73.91
2022-12-24T12:22:39.809Z,74.12
2022-12-24T12:25:18.480Z,74.13
2022-12-24T12:27:48.596Z,73.55
2022-12-24T12:30:18.715Z,73.69
2022-12-24T12:32:52.114Z,73.02
2022-12-24T12:35:26.946Z,73.85
2022-12-24T12:37:58.211Z,73.13
2022-12-24T12:40:48.430Z,73.69
2022-12-24T12:43:32.459Z,74.51
2022-12-24T12:46:07.705Z,75.36
2022-12-24T12:49:02.892Z,75.72
2022-12-24T12:51:43.249Z,75.43
2022-12-24T12:54:32.173Z,75.27
2022-12-24T12:57:06.573Z,75.89
2022-12-24T12:59:37.735Z,76.28
2022-12-24T13:02:26.060Z,75.95
2022-12-24T13:05:15.258Z,75.72
2022-12-24T13:08:18.721Z,76.08
2022-12-24T13:11:05.439Z,75.95
2022-12-24T13:13:48.563Z,75.93
2022-12-24T13:16:41.102Z,75.12
2022-12-24T13:19:19.594Z,73.96
2022-12-24T13:21:48.782Z,73.91
2022-12-24T13:24:20.090Z,73.89
2022-12-24T13:27:01.993Z,73.03
2022-12-24T13:29:42.420Z,72.74
2022-12-24T13:32:39.188Z,72.09
2022-12-24T13:35:37.144Z,72.08
2022-12-24T13:38:46.077Z,71.40
2022-12-24T13:41:49.808Z,71.32
2022-12-24T13:44:23.103Z,72.19
2022-12-24T13:46:56.502Z,71.48
2022-12-24T13:49:29.655Z,72.36
2022-12-24T13:52:19.592Z,72.46
2022-12-24T13:54:51.432Z,71.55
2022-12-24T13:57:32.777Z,72.00
2022-12-24T14:00:03.671Z,72.35
2022-12-24T14:02:36.850Z,71.91
2022-12-24T14:05:09.360Z,72.27
2022-12-24T14:07:37.928Z,72.91
2022-12-24T14:10:07.191Z,71.93
2022-12-24T14:12:48.910Z,73.08
2022-12-24T14:15:52.818Z,72.45
2022-12-24T14:18:23.427Z,72.25
2022-12-24T14:20:52.453Z,73.29
2022-12-24T14:23:31.927Z,72.21
2022-12-24T14:26:01.619Z,73.55
2022-12-24T14:28:37.543Z,72.55
2022-12-24T14:31:06.661Z,73.26
2022-12-24T14:33:36.127Z,73.40
2022-12-24T14:36:04.118Z,73.16
2022-12-24T14:38:31.979Z,73.14
2022-12-24T14:41:08.993Z,73.68
2022-12-24T14:43:49.646Z,73.25
2022-12-24T14:46:25.595Z,74.29
2022-12-24T14:48:56.159Z,73.82
2022-12-24T14:51:30.697Z,73.85
2022-12-24T14:54:32.187Z,74.43
2022-12-24T14:57:23.156Z,74.32
2022-12-24T14:59:54.274Z,74.57
2022-12-24T15:02:39.302Z,74.68
2022-12-24T15:05:10.336Z,75.46
2022-12-24T15:07:47.340Z,76.22
2022-12-24T15:10:28.927Z,76.42
2022-12-24T15:12:58.564Z,75.73
2022-12-24T15:15:27.398Z,76.30
2022-12-24T15:17:55.946Z,75.59
2022-12-24T15:20:27.468Z,76.18
2022-12-24T15:22:56.904Z,76.93
2022-12-24T15:25:27.126Z,76.86
2022-12-24T15:27:54.737Z,77.41
2022-12-24T15:30:24.186Z,77.79
2022-12-24T15:32:54.889Z,77.97
2022-12-24T15:35:52.607Z,77.84
2022-12-24T15:38:25.588Z,77.31
2022-12-24T15:40:53.995Z,78.14
2022-12-24T15:43:21.745Z,78.21
2022-12-24T15:45:49.412Z,78.84
2022-12-24T15:48:23.523Z,78.36
2022-12-24T15:50:53.701Z,79.12
2022-12-24T15:53:26.790Z,79.79
2022-12-24T15:56:03.508Z,79.78
2022-12-24T15:58:33.274Z,78.18
2022-12-24T16:01:02.652Z,78.41
2022-12-24T16:03:31.972Z,78.39
2022-12-24T16:06:03.263Z,77.81
2022-12-24T16:08:32.990Z,77.60
2022-12-24T16:11:19.019Z,77.30
2022-12-24T16:14:01.538Z,76.91
2022-12-24T16:16:35.730Z,76.11
2022-12-24T16:19:06.908Z,76.65
2022-12-24T16:21:37.530Z,77.37
2022-12-24T16:24:08.812Z,78.94
2022-12-24T16:26:38.098Z,80.40
2022-12-24T16:29:05.523Z,80.79
2022-12-24T16:31:34.877Z,81.90
2022-12-24T16:34:04.496Z,82.46
2022-12-24T16:36:33.198Z,84.37
2022-12-24T16:39:18.202Z,84.75
2022-12-24T16:42:03.316Z,85.10
2022-12-24T16:44:30.678Z,85.89
2022-12-24T16:47:00.581Z,86.85
2022-12-24T16:49:30.780Z,87.28
2022-12-24T16:51:58.497Z,88.02
2022-12-24T16:54:25.891Z,90.17
2022-12-24T16:56:53.257Z,90.74
2022-12-24T16:59:22.912Z,91.53
2022-12-24T17:01:51.844Z,91.17
2022-12-24T17:04:19.969Z,91.05
2022-12-24T17:06:49.787Z,91.26
2022-12-24T17:09:17.755Z,91.20
2022-12-24T17:11:45.211Z,90.00
2022-12-24T17:14:19.652Z,90.01
2022-12-24T17:16:47.788Z,90.01
2022-12-24T17:19:15.337Z,91.29
2022-12-24T17:21:42.817Z,90.68
2022-12-24T17:24:12.374Z,92.53
2022-12-24T17:26:39.818Z,91.64
2022-12-24T17:29:07.296Z,90.88
2022-12-24T17:31:34.915Z,90.58
2022-12-24T17:34:02.361Z,90.43
2022-12-24T17:36:29.728Z,91.03
2022-12-24T17:38:57.131Z,91.30
2022-12-24T17:41:25.803Z,92.06
2022-12-24T17:43:53.390Z,92.39
2022-12-24T17:46:22.747Z,91.94
2022-12-24T17:48:50.807Z,92.12
2022-12-24T17:51:20.438Z,94.57
2022-12-24T17:53:48.645Z,93.59
2022-12-24T17:56:17.027Z,93.64
2022-12-24T17:58:47.201Z,94.99
2022-12-24T18:01:17.102Z,96.56
2022-12-24T18:03:44.739Z,97.05
2022-12-24T18:06:13.388Z,96.82
2022-12-24T18:08:42.562Z,97.79
2022-12-24T18:11:14.431Z,97.37
2022-12-24T18:13:42.707Z,98.25
2022-12-24T18:16:19.959Z,97.89
2022-12-24T18:18:48.189Z,96.76
2022-12-24T18:21:17.172Z,97.30
2022-12-24T18:23:46.383Z,97.39
2022-12-24T18:26:15.339Z,97.68
2022-12-24T18:28:43.686Z,97.47
2022-12-24T18:31:13.923Z,97.40
2022-12-24T18:33:43.371Z,99.80
2022-12-24T18:36:11.294Z,99.16
2022-12-24T18:38:39.179Z,99.17
2022-12-24T18:41:08.368Z,98.99
2022-12-24T18:43:36.115Z,99.82
2022-12-24T18:46:07.408Z,99.28
2022-12-24T18:48:34.830Z,98.48
2022-12-24T18:51:03.612Z,99.83
2022-12-24T18:53:31.067Z,100.00
2022-12-24T18:56:03.821Z,100.00
2022-12-24T18:58:31.228Z,100.00
2022-12-24T19:00:58.647Z,98.63
2022-12-24T19:03:26.394Z,98.47
2022-12-24T19:05:53.769Z,98.49
2022-12-24T19:08:46.988Z,98.48
2022-12-24T19:11:10.001Z,98.74
2022-12-24T19:13:37.415Z,97.66
2022-12-24T19:16:05.924Z,98.97
2022-12-24T19:18:33.676Z,97.65
2022-12-24T19:21:06.104Z,97.93
2022-12-24T19:23:35.106Z,98.69
2022-12-24T19:26:02.806Z,99.97
2022-12-24T19:28:30.730Z,99.32
2022-12-24T19:31:03.488Z,98.93
2022-12-24T19:33:31.125Z,98.57
2022-12-24T19:35:58.722Z,98.87
2022-12-24T19:38:26.105Z,100.00
2022-12-24T19:40:54.799Z,100.00
2022-12-24T19:43:22.192Z,99.19
2022-12-24T19:45:49.744Z,99.13
2022-12-24T19:48:17.323Z,100.00
2022-12-24T19:50:44.679Z,100.00
2022-12-24T19:53:12.058Z,99.79
2022-12-24T19:55:45.622Z,100.00
2022-12-24T19:58:14.473Z,99.99
2022-12-24T20:00:41.860Z,99.24
2022-12-24T20:03:09.381Z,99.61
2022-12-24T20:05:40.953Z,99.50
2022-12-24T20:08:08.591Z,99.43
2022-12-24T20:10:39.528Z,99.93
2022-12-24T20:13:06.964Z,99.42
2022-12-24T20:15:40.597Z,98.75
2022-12-24T20:18:08.463Z,98.02
2022-12-24T20:20:36.059Z,97.78
2022-12-24T20:23:04.360Z,96.88
2022-12-24T20:25:34.224Z,96.16
2022-12-24T20:28:01.604Z,95.87
2022-12-24T20:30:29.021Z,95.38
2022-12-24T20:32:58.395Z,94.61
2022-12-24T20:35:25.836Z,94.40
2022-12-24T20:37:53.327Z,94.14
2022-12-24T20:40:20.719Z,94.00
2022-12-24T20:42:48.073Z,93.97
2022-12-24T20:45:16.319Z,93.91
2022-12-24T20:47:43.695Z,93.01
2022-12-24T20:50:12.815Z,93.59
2022-12-24T20:52:40.489Z,94.45
2022-12-24T20:55:08.234Z,94.04
2022-12-24T20:57:36.923Z,94.53
2022-12-24T21:00:05.476Z,94.79
2022-12-24T21:02:33.000Z,94.90
2022-12-24T21:05:02.538Z,95.40
2022-12-24T21:07:31.610Z,94.99
2022-12-24T21:09:58.974Z,95.78
2022-12-24T21:12:44.165Z,95.58
2022-12-24T21:15:11.693Z,95.65
2022-12-24T21:17:39.068Z,96.39
2022-12-24T21:20:07.669Z,96.52
2022-12-24T21:22:36.363Z,95.67
2022-12-24T21:25:03.737Z,96.01
2022-12-24T21:27:31.881Z,96.71
2022-12-24T21:29:59.985Z,96.63
2022-12-24T21:32:27.297Z,97.59
2022-12-24T21:34:54.667Z,96.77
2022-12-24T21:37:22.050Z,97.61
2022-12-24T21:39:51.230Z,100.00
2022-12-24T21:42:18.750Z,98.99
2022-12-24T21:44:46.155Z,99.59
2022-12-24T21:47:13.833Z,99.15
2022-12-24T21:49:58.826Z,98.85
2022-12-24T21:52:26.197Z,99.10
2022-12-24T21:54:53.954Z,98.90
2022-12-24T21:57:38.710Z,97.75
2022-12-24T22:00:22.914Z,97.78
2022-12-24T22:02:51.614Z,98.53
2022-12-24T22:05:19.942Z,99.35
2022-12-24T22:08:05.049Z,98.94
2022-12-24T22:10:51.481Z,98.82
2022-12-24T22:13:19.866Z,98.85
2022-12-24T22:15:49.009Z,98.28
2022-12-24T22:18:18.066Z,98.09
2022-12-24T22:20:46.643Z,98.20
2022-12-24T22:23:14.677Z,98.45
2022-12-24T22:25:44.372Z,97.92
2022-12-24T22:28:12.738Z,98.04
2022-12-24T22:30:41.210Z,98.16
2022-12-24T22:33:09.395Z,99.60
2022-12-24T22:35:37.778Z,98.79
2022-12-24T22:38:05.249Z,99.29
2022-12-24T22:40:32.630Z,99.11
2022-12-24T22:43:01.374Z,98.45
2022-12-24T22:45:28.757Z,100.00
2022-12-24T22:47:56.189Z,99.83
2022-12-24T22:50:23.808Z,100.00
2022-12-24T22:52:52.523Z,100.00
2022-12-24T22:55:20.065Z,100.00
2022-12-24T22:57:47.608Z,100.00
2022-12-24T23:00:39.290Z,100.00
2022-12-24T23:03:08.005Z,100.00
2022-12-24T23:05:35.672Z,100.00
2022-12-24T23:08:03.138Z,100.00
2022-12-24T23:10:30.543Z,100.00
2022-12-24T23:13:17.303Z,100.00
2022-12-24T23:15:46.098Z,100.00
2022-12-24T23:18:13.800Z,100.00
2022-12-24T23:20:43.161Z,100.00
2022-12-24T23:23:10.577Z,100.00
2022-12-24T23:25:38.284Z,100.00
2022-12-24T23:28:06.031Z,100.00
2022-12-24T23:30:33.697Z,100.00
2022-12-24T23:33:02.549Z,100.00
2022-12-24T23:35:29.938Z,100.00
2022-12-24T23:37:57.381Z,100.00
2022-12-24T23:40:25.679Z,100.00
2022-12-24T23:42:53.076Z,100.00
2022-12-24T23:45:20.474Z,100.00
2022-12-24T23:47:47.878Z,100.00
2022-12-24T23:50:16.561Z,100.00
2022-12-24T23:52:43.942Z,100.00
2022-12-24T23:55:11.320Z,100.00
2022-12-24T23:57:38.704Z,100.00
